sensor_id;sensor_type;location;lat;lon;timestamp;pressure;altitude;pressure_sealevel;temperature;humidity
35778;BME280;21899;42.662;23.316;2023-03-01T00:01:49;94861.50;;;5.26;100.00
35778;BME280;21899;42.662;23.316;2023-03-01T00:04:14;94852.56;;;5.19;100.00
35778;BME280;21899;42.662;23.316;2023-03-01T00:06:42;94852.16;;;5.17;100.00
35778;BME280;21899;42.662;23.316;2023-03-01T00:09:08;94843.06;;;5.18;100.00
35778;BME280;21899;42.662;23.316;2023-03-01T00:11:34;94837.31;;;5.16;100.00
35778;BME280;21899;42.662;23.316;2023-03-01T00:14:00;94836.91;;;5.14;100.00
35778;BME280;21899;42.662;23.316;2023-03-01T00:16:29;94838.53;;;5.18;100.00
35778;BME280;21899;42.662;23.316;2023-03-01T00:18:55;94831.66;;;5.17;100.00
35778;BME280;21899;42.662;23.316;2023-03-01T00:21:22;94833.84;;;5.27;100.00
35778;BME280;21899;42.662;23.316;2023-03-01T00:23:48;94820.41;;;5.20;100.00
35778;BME280;21899;42.662;23.316;2023-03-01T00:26:15;94824.69;;;5.25;100.00
35778;BME280;21899;42.662;23.316;2023-03-01T00:28:41;94818.16;;;5.22;100.00
35778;BME280;21899;42.662;23.316;2023-03-01T00:31:09;94823.22;;;5.27;100.00
35778;BME280;21899;42.662;23.316;2023-03-01T00:33:35;94811.13;;;5.14;100.00
35778;BME280;21899;42.662;23.316;2023-03-01T00:36:02;94813.78;;;5.14;100.00
35778;BME280;21899;42.662;23.316;2023-03-01T00:38:28;94803.50;;;5.13;100.00
35778;BME280;21899;42.662;23.316;2023-03-01T00:40:54;94807.38;;;5.15;100.00
35778;BME280;21899;42.662;23.316;2023-03-01T00:43:19;94813.44;;;5.16;100.00
35778;BME280;21899;42.662;23.316;2023-03-01T00:45:44;94800.66;;;5.06;100.00
35778;BME280;21899;42.662;23.316;2023-03-01T00:48:10;94799.13;;;5.05;100.00
35778;BME280;21899;42.662;23.316;2023-03-01T00:50:35;94802.56;;;5.05;100.00
35778;BME280;21899;42.662;23.316;2023-03-01T00:53:01;94798.41;;;4.92;100.00
35778;BME280;21899;42.662;23.316;2023-03-01T00:55:27;94804.69;;;5.00;100.00
35778;BME280;21899;42.662;23.316;2023-03-01T00:57:52;94796.88;;;4.91;100.00
35778;BME280;21899;42.662;23.316;2023-03-01T01:00:18;94802.38;;;4.98;100.00
35778;BME280;21899;42.662;23.316;2023-03-01T01:02:44;94797.53;;;4.88;100.00
35778;BME280;21899;42.662;23.316;2023-03-01T01:05:10;94806.78;;;4.94;100.00
35778;BME280;21899;42.662;23.316;2023-03-01T01:07:36;94804.38;;;4.89;100.00
35778;BME280;21899;42.662;23.316;2023-03-01T01:10:02;94796.00;;;4.87;100.00
35778;BME280;21899;42.662;23.316;2023-03-01T01:12:27;94796.75;;;4.88;100.00
35778;BME280;21899;42.662;23.316;2023-03-01T01:14:52;94782.31;;;4.85;100.00
35778;BME280;21899;42.662;23.316;2023-03-01T01:17:18;94786.94;;;4.88;100.00
35778;BME280;21899;42.662;23.316;2023-03-01T01:19:43;94797.97;;;4.90;100.00
35778;BME280;21899;42.662;23.316;2023-03-01T01:22:09;94798.56;;;4.84;100.00
35778;BME280;21899;42.662;23.316;2023-03-01T01:24:35;94790.75;;;4.75;100.00
35778;BME280;21899;42.662;23.316;2023-03-01T01:27:00;94791.09;;;4.74;100.00
35778;BME280;21899;42.662;23.316;2023-03-01T01:29:25;94786.63;;;4.78;100.00
35778;BME280;21899;42.662;23.316;2023-03-01T01:31:51;94788.94;;;4.79;100.00
35778;BME280;21899;42.662;23.316;2023-03-01T01:34:19;94786.97;;;4.76;100.00
35778;BME280;21899;42.662;23.316;2023-03-01T01:36:48;94797.06;;;4.71;100.00
35778;BME280;21899;42.662;23.316;2023-03-01T01:39:13;94807.75;;;4.74;100.00
35778;BME280;21899;42.662;23.316;2023-03-01T01:41:40;94814.38;;;4.80;100.00
35778;BME280;21899;42.662;23.316;2023-03-01T01:44:19;94809.50;;;4.82;100.00
35778;BME280;21899;42.662;23.316;2023-03-01T01:47:02;94825.09;;;4.84;100.00
35778;BME280;21899;42.662;23.316;2023-03-01T01:49:33;94817.88;;;4.84;100.00
35778;BME280;21899;42.662;23.316;2023-03-01T01:52:23;94810.38;;;4.86;100.00
35778;BME280;21899;42.662;23.316;2023-03-01T01:55:03;94801.97;;;4.84;100.00
35778;BME280;21899;42.662;23.316;2023-03-01T01:57:36;94805.94;;;4.90;100.00
35778;BME280;21899;42.662;23.316;2023-03-01T02:00:06;94796.66;;;4.84;100.00
35778;BME280;21899;42.662;23.316;2023-03-01T02:02:32;94796.00;;;4.87;100.00
35778;BME280;21899;42.662;23.316;2023-03-01T02:07:52;94798.19;;;4.97;100.00
35778;BME280;21899;42.662;23.316;2023-03-01T02:10:20;94788.41;;;5.01;100.00
35778;BME280;21899;42.662;23.316;2023-03-01T02:12:46;94777.19;;;4.92;100.00
35778;BME280;21899;42.662;23.316;2023-03-01T02:15:11;94782.50;;;4.92;100.00
35778;BME280;21899;42.662;23.316;2023-03-01T02:17:37;94781.63;;;4.88;100.00
35778;BME280;21899;42.662;23.316;2023-03-01T02:22:50;94786.06;;;4.84;100.00
35778;BME280;21899;42.662;23.316;2023-03-01T02:30:26;94786.94;;;4.88;100.00
35778;BME280;21899;42.662;23.316;2023-03-01T02:32:54;94789.59;;;4.88;100.00
35778;BME280;21899;42.662;23.316;2023-03-01T02:35:32;94787.63;;;4.85;100.00
35778;BME280;21899;42.662;23.316;2023-03-01T02:38:00;94801.38;;;4.91;100.00
35778;BME280;21899;42.662;23.316;2023-03-01T02:40:28;94796.66;;;4.84;100.00
35778;BME280;21899;42.662;23.316;2023-03-01T02:42:57;94789.59;;;4.88;100.00
35778;BME280;21899;42.662;23.316;2023-03-01T02:45:23;94805.25;;;4.93;100.00
35778;BME280;21899;42.662;23.316;2023-03-01T02:47:49;94797.75;;;4.95;100.00
35778;BME280;21899;42.662;23.316;2023-03-01T02:53:01;94800.84;;;4.97;100.00
35778;BME280;21899;42.662;23.316;2023-03-01T02:55:32;94790.88;;;4.94;100.00
35778;BME280;21899;42.662;23.316;2023-03-01T02:57:57;94784.03;;;4.93;100.00
35778;BME280;21899;42.662;23.316;2023-03-01T03:00:31;94801.69;;;5.01;100.00
35778;BME280;21899;42.662;23.316;2023-03-01T03:02:58;94808.53;;;5.02;100.00
35778;BME280;21899;42.662;23.316;2023-03-01T03:05:29;94800.16;;;5.00;100.00
35778;BME280;21899;42.662;23.316;2023-03-01T03:07:56;94799.72;;;4.98;100.00
35778;BME280;21899;42.662;23.316;2023-03-01T03:10:26;94792.88;;;4.97;100.00
35778;BME280;21899;42.662;23.316;2023-03-01T03:12:56;94797.91;;;5.02;100.00
35778;BME280;21899;42.662;23.316;2023-03-01T03:15:23;94794.66;;;4.93;100.00
35778;BME280;21899;42.662;23.316;2023-03-01T03:17:51;94803.91;;;4.99;100.00
35778;BME280;21899;42.662;23.316;2023-03-01T03:20:19;94798.41;;;4.92;100.00
35778;BME280;21899;42.662;23.316;2023-03-01T03:22:46;94801.06;;;4.92;100.00
35778;BME280;21899;42.662;23.316;2023-03-01T03:25:12;94800.84;;;4.97;100.00
35778;BME280;21899;42.662;23.316;2023-03-01T03:27:39;94806.22;;;5.01;100.00
35778;BME280;21899;42.662;23.316;2023-03-01T03:30:07;94793.88;;;4.93;100.00
35778;BME280;21899;42.662;23.316;2023-03-01T03:32:37;94802.94;;;4.92;100.00
35778;BME280;21899;42.662;23.316;2023-03-01T03:35:03;94805.16;;;4.90;100.00
35778;BME280;21899;42.662;23.316;2023-03-01T03:37:36;94791.28;;;4.81;100.00
35778;BME280;21899;42.662;23.316;2023-03-01T03:40:21;94804.69;;;4.72;100.00
35778;BME280;21899;42.662;23.316;2023-03-01T03:42:46;94809.97;;;4.72;100.00
35778;BME280;21899;42.662;23.316;2023-03-01T03:45:11;94811.31;;;4.66;100.00
35778;BME280;21899;42.662;23.316;2023-03-01T03:47:37;94809.09;;;4.68;100.00
35778;BME280;21899;42.662;23.316;2023-03-01T03:50:02;94805.59;;;4.64;100.00
35778;BME280;21899;42.662;23.316;2023-03-01T03:52:27;94811.31;;;4.66;100.00
35778;BME280;21899;42.662;23.316;2023-03-01T03:54:53;94813.56;;;4.64;100.00
35778;BME280;21899;42.662;23.316;2023-03-01T03:57:18;94810.31;;;4.71;100.00
35778;BME280;21899;42.662;23.316;2023-03-01T03:59:43;94816.81;;;4.73;100.00
35778;BME280;21899;42.662;23.316;2023-03-01T04:02:09;94815.69;;;4.74;100.00
35778;BME280;21899;42.662;23.316;2023-03-01T04:04:34;94820.16;;;4.70;100.00
35778;BME280;21899;42.662;23.316;2023-03-01T04:07:00;94811.97;;;4.63;100.00
35778;BME280;21899;42.662;23.316;2023-03-01T04:09:25;94817.50;;;4.70;100.00
35778;BME280;21899;42.662;23.316;2023-03-01T04:11:50;94819.72;;;4.68;100.00
35778;BME280;21899;42.662;23.316;2023-03-01T04:14:16;94810.44;;;4.62;100.00
35778;BME280;21899;42.662;23.316;2023-03-01T04:16:41;94818.94;;;4.68;100.00
35778;BME280;21899;42.662;23.316;2023-03-01T04:19:06;94812.44;;;4.65;100.00
35778;BME280;21899;42.662;23.316;2023-03-01T04:21:32;94807.34;;;4.60;100.00
35778;BME280;21899;42.662;23.316;2023-03-01T04:23:57;94813.44;;;4.61;100.00
35778;BME280;21899;42.662;23.316;2023-03-01T04:26:23;94821.50;;;4.64;100.00
35778;BME280;21899;42.662;23.316;2023-03-01T04:28:48;94820.38;;;4.65;100.00
35778;BME280;21899;42.662;23.316;2023-03-01T04:31:17;94814.88;;;4.58;100.00
35778;BME280;21899;42.662;23.316;2023-03-01T04:33:48;94818.84;;;4.64;100.00
35778;BME280;21899;42.662;23.316;2023-03-01T04:36:17;94818.63;;;4.69;100.00
35778;BME280;21899;42.662;23.316;2023-03-01T04:38:43;94804.81;;;4.64;100.00
35778;BME280;21899;42.662;23.316;2023-03-01T04:41:13;94806.69;;;4.63;100.00
35778;BME280;21899;42.662;23.316;2023-03-01T04:43:39;94814.50;;;4.72;100.00
35778;BME280;21899;42.662;23.316;2023-03-01T04:46:07;94816.72;;;4.70;100.00
35778;BME280;21899;42.662;23.316;2023-03-01T04:48:35;94812.44;;;4.65;100.00
35778;BME280;21899;42.662;23.316;2023-03-01T04:51:01;94811.06;;;4.71;100.00
35778;BME280;21899;42.662;23.316;2023-03-01T04:53:27;94818.34;;;4.74;100.00
35778;BME280;21899;42.662;23.316;2023-03-01T04:55:54;94808.41;;;4.71;100.00
35778;BME280;21899;42.662;23.316;2023-03-01T04:58:24;94795.63;;;4.61;100.00
35778;BME280;21899;42.662;23.316;2023-03-01T05:00:49;94807.47;;;4.64;100.00
35778;BME280;21899;42.662;23.316;2023-03-01T05:03:15;94802.41;;;4.59;100.00
35778;BME280;21899;42.662;23.316;2023-03-01T05:05:44;94808.56;;;4.63;100.00
35778;BME280;21899;42.662;23.316;2023-03-01T05:08:10;94808.81;;;4.58;100.00
35778;BME280;21899;42.662;23.316;2023-03-01T05:10:46;94808.47;;;4.59;100.00
35778;BME280;21899;42.662;23.316;2023-03-01T05:13:13;94796.75;;;4.60;100.00
35778;BME280;21899;42.662;23.316;2023-03-01T05:15:40;94811.97;;;4.63;100.00
35778;BME280;21899;42.662;23.316;2023-03-01T05:18:06;94810.91;;;4.64;100.00
35778;BME280;21899;42.662;23.316;2023-03-01T05:20:37;94798.53;;;4.56;100.00
35778;BME280;21899;42.662;23.316;2023-03-01T05:23:03;94818.63;;;4.69;100.00
35778;BME280;21899;42.662;23.316;2023-03-01T05:25:31;94805.59;;;4.64;100.00
35778;BME280;21899;42.662;23.316;2023-03-01T05:27:59;94814.84;;;4.70;100.00
35778;BME280;21899;42.662;23.316;2023-03-01T05:30:24;94811.97;;;4.63;100.00
35778;BME280;21899;42.662;23.316;2023-03-01T05:32:50;94818.06;;;4.64;100.00
35778;BME280;21899;42.662;23.316;2023-03-01T05:35:21;94801.38;;;4.63;100.00
35778;BME280;21899;42.662;23.316;2023-03-01T05:37:48;94803.34;;;4.66;100.00
35778;BME280;21899;42.662;23.316;2023-03-01T05:40:19;94809.53;;;4.70;100.00
35778;BME280;21899;42.662;23.316;2023-03-01T05:42:56;94802.38;;;4.71;100.00
35778;BME280;21899;42.662;23.316;2023-03-01T05:45:23;94814.59;;;4.75;100.00
35778;BME280;21899;42.662;23.316;2023-03-01T05:47:50;94816.13;;;4.76;100.00
35778;BME280;21899;42.662;23.316;2023-03-01T05:50:26;94798.69;;;4.75;100.00
35778;BME280;21899;42.662;23.316;2023-03-01T05:53:00;94821.53;;;4.80;100.00
35778;BME280;21899;42.662;23.316;2023-03-01T05:55:27;94829.84;;;4.78;100.00
35778;BME280;21899;42.662;23.316;2023-03-01T05:57:52;94822.22;;;4.77;100.00
35778;BME280;21899;42.662;23.316;2023-03-01T06:00:19;94832.69;;;4.85;100.00
35778;BME280;21899;42.662;23.316;2023-03-01T06:02:47;94824.53;;;4.78;100.00
35778;BME280;21899;42.662;23.316;2023-03-01T06:05:13;94832.25;;;4.83;100.00
35778;BME280;21899;42.662;23.316;2023-03-01T06:07:39;94848.63;;;4.85;100.00
35778;BME280;21899;42.662;23.316;2023-03-01T06:10:06;94839.88;;;4.85;100.00
35778;BME280;21899;42.662;23.316;2023-03-01T06:12:33;94839.31;;;4.79;100.00
35778;BME280;21899;42.662;23.316;2023-03-01T06:14:59;94840.44;;;4.78;100.00
35778;BME280;21899;42.662;23.316;2023-03-01T06:17:24;94851.06;;;4.78;100.00
35778;BME280;21899;42.662;23.316;2023-03-01T06:19:49;94856.13;;;4.83;100.00
35778;BME280;21899;42.662;23.316;2023-03-01T06:22:15;94854.94;;;4.81;100.00
35778;BME280;21899;42.662;23.316;2023-03-01T06:24:40;94849.69;;;4.84;100.00
35778;BME280;21899;42.662;23.316;2023-03-01T06:27:06;94850.03;;;4.83;100.00
35778;BME280;21899;42.662;23.316;2023-03-01T06:29:31;94839.66;;;4.78;100.00
35778;BME280;21899;42.662;23.316;2023-03-01T06:31:56;94842.19;;;4.86;100.00
35778;BME280;21899;42.662;23.316;2023-03-01T06:34:22;94846.91;;;4.93;100.00
35778;BME280;21899;42.662;23.316;2023-03-01T06:36:47;94846.91;;;4.93;100.00
35778;BME280;21899;42.662;23.316;2023-03-01T06:39:13;94857.72;;;5.00;100.00
35778;BME280;21899;42.662;23.316;2023-03-01T06:41:38;94861.69;;;5.06;100.00
35778;BME280;21899;42.662;23.316;2023-03-01T06:44:04;94850.41;;;5.09;100.00
35778;BME280;21899;42.662;23.316;2023-03-01T06:46:29;94845.34;;;5.04;100.00
35778;BME280;21899;42.662;23.316;2023-03-01T06:48:55;94848.06;;;5.07;100.00
35778;BME280;21899;42.662;23.316;2023-03-01T06:51:21;94854.50;;;5.06;100.00
35778;BME280;21899;42.662;23.316;2023-03-01T06:53:46;94860.16;;;5.05;100.00
35778;BME280;21899;42.662;23.316;2023-03-01T06:56:12;94848.06;;;5.07;100.00
35778;BME280;21899;42.662;23.316;2023-03-01T06:58:37;94852.63;;;5.07;100.00
35778;BME280;21899;42.662;23.316;2023-03-01T07:01:09;94841.69;;;5.08;100.00
35778;BME280;21899;42.662;23.316;2023-03-01T07:03:34;94856.00;;;5.19;100.00
35778;BME280;21899;42.662;23.316;2023-03-01T07:06:00;94851.81;;;5.18;100.00
35778;BME280;21899;42.662;23.316;2023-03-01T07:08:25;94866.50;;;5.16;100.00
35778;BME280;21899;42.662;23.316;2023-03-01T07:10:58;94846.16;;;5.20;100.00
35778;BME280;21899;42.662;23.316;2023-03-01T07:13:24;94844.78;;;5.26;100.00
35778;BME280;21899;42.662;23.316;2023-03-01T07:15:49;94853.19;;;5.28;100.00
35778;BME280;21899;42.662;23.316;2023-03-01T07:18:14;94845.47;;;5.23;100.00
35778;BME280;21899;42.662;23.316;2023-03-01T07:20:40;94851.72;;;5.30;100.00
35778;BME280;21899;42.662;23.316;2023-03-01T07:23:06;94840.88;;;5.35;100.00
35778;BME280;21899;42.662;23.316;2023-03-01T07:25:31;94840.56;;;5.37;100.00
35778;BME280;21899;42.662;23.316;2023-03-01T07:27:57;94849.22;;;5.50;100.00
35778;BME280;21899;42.662;23.316;2023-03-01T07:30:23;94841.84;;;5.59;100.00
35778;BME280;21899;42.662;23.316;2023-03-01T07:32:51;94849.75;;;5.71;100.00
35778;BME280;21899;42.662;23.316;2023-03-01T07:35:17;94846.00;;;5.72;100.00
35778;BME280;21899;42.662;23.316;2023-03-01T07:37:42;94835.19;;;5.80;100.00
35778;BME280;21899;42.662;23.316;2023-03-01T07:40:09;94832.72;;;5.72;100.00
35778;BME280;21899;42.662;23.316;2023-03-01T07:42:34;94837.34;;;5.90;100.00
35778;BME280;21899;42.662;23.316;2023-03-01T07:45:00;94839.16;;;6.02;100.00
35778;BME280;21899;42.662;23.316;2023-03-01T07:47:25;94842.34;;;6.07;100.00
35778;BME280;21899;42.662;23.316;2023-03-01T07:49:51;94841.28;;;6.12;100.00
35778;BME280;21899;42.662;23.316;2023-03-01T07:52:16;94838.38;;;6.32;100.00
35778;BME280;21899;42.662;23.316;2023-03-01T07:54:44;94829.94;;;6.46;100.00
35778;BME280;21899;42.662;23.316;2023-03-01T07:57:10;94840.44;;;6.58;100.00
35778;BME280;21899;42.662;23.316;2023-03-01T07:59:36;94829.34;;;6.37;100.00
35778;BME280;21899;42.662;23.316;2023-03-01T08:02:01;94835.09;;;6.39;100.00
35778;BME280;21899;42.662;23.316;2023-03-01T08:04:27;94832.06;;;6.56;100.00
35778;BME280;21899;42.662;23.316;2023-03-01T08:06:53;94835.19;;;6.61;100.00
35778;BME280;21899;42.662;23.316;2023-03-01T08:09:19;94833.03;;;6.67;100.00
35778;BME280;21899;42.662;23.316;2023-03-01T08:11:44;94823.66;;;6.54;100.00
35778;BME280;21899;42.662;23.316;2023-03-01T08:14:10;94822.63;;;6.43;100.00
35778;BME280;21899;42.662;23.316;2023-03-01T08:16:36;94825.19;;;6.55;100.00
35778;BME280;21899;42.662;23.316;2023-03-01T08:19:06;94830.81;;;6.69;100.00
35778;BME280;21899;42.662;23.316;2023-03-01T08:21:32;94822.56;;;6.74;100.00
35778;BME280;21899;42.662;23.316;2023-03-01T08:24:00;94818.16;;;6.82;100.00
35778;BME280;21899;42.662;23.316;2023-03-01T08:26:25;94831.53;;;6.85;100.00
35778;BME280;21899;42.662;23.316;2023-03-01T08:28:51;94831.38;;;6.78;100.00
35778;BME280;21899;42.662;23.316;2023-03-01T08:31:25;94821.28;;;6.68;100.00
35778;BME280;21899;42.662;23.316;2023-03-01T08:33:53;94827.34;;;6.84;100.00
35778;BME280;21899;42.662;23.316;2023-03-01T08:36:26;94810.47;;;6.96;100.00
35778;BME280;21899;42.662;23.316;2023-03-01T08:38:52;94820.19;;;7.07;99.25
35778;BME280;21899;42.662;23.316;2023-03-01T08:41:18;94819.41;;;7.07;98.02
35778;BME280;21899;42.662;23.316;2023-03-01T08:43:44;94815.84;;;7.18;97.78
35778;BME280;21899;42.662;23.316;2023-03-01T08:46:10;94832.38;;;7.08;96.65
35778;BME280;21899;42.662;23.316;2023-03-01T08:48:36;94829.41;;;6.94;97.26
35778;BME280;21899;42.662;23.316;2023-03-01T08:51:16;94817.09;;;6.86;97.26
35778;BME280;21899;42.662;23.316;2023-03-01T08:53:42;94828.31;;;6.95;96.39
35778;BME280;21899;42.662;23.316;2023-03-01T08:56:08;94816.25;;;7.01;96.57
35778;BME280;21899;42.662;23.316;2023-03-01T08:58:34;94820.44;;;7.21;94.74
35778;BME280;21899;42.662;23.316;2023-03-01T09:01:00;94812.84;;;7.42;94.98
35778;BME280;21899;42.662;23.316;2023-03-01T09:03:26;94810.25;;;7.46;93.17
35778;BME280;21899;42.662;23.316;2023-03-01T09:05:52;94812.47;;;7.40;92.66
35778;BME280;21899;42.662;23.316;2023-03-01T09:08:18;94816.34;;;7.46;92.94
35778;BME280;21899;42.662;23.316;2023-03-01T09:10:45;94817.50;;;7.68;93.09
35778;BME280;21899;42.662;23.316;2023-03-01T09:13:10;94827.25;;;8.06;90.85
35778;BME280;21899;42.662;23.316;2023-03-01T09:15:37;94826.91;;;8.30;88.06
35778;BME280;21899;42.662;23.316;2023-03-01T09:18:02;94838.81;;;8.36;87.25
35778;BME280;21899;42.662;23.316;2023-03-01T09:20:28;94818.97;;;8.11;87.35
35778;BME280;21899;42.662;23.316;2023-03-01T09:22:53;94817.63;;;7.97;88.47
35778;BME280;21899;42.662;23.316;2023-03-01T09:25:18;94819.84;;;8.18;88.04
35778;BME280;21899;42.662;23.316;2023-03-01T09:27:44;94812.25;;;8.20;87.26
35778;BME280;21899;42.662;23.316;2023-03-01T09:30:10;94822.94;;;8.46;87.44
35778;BME280;21899;42.662;23.316;2023-03-01T09:32:36;94819.78;;;8.37;86.76
35778;BME280;21899;42.662;23.316;2023-03-01T09:35:02;94822.41;;;8.34;86.47
35778;BME280;21899;42.662;23.316;2023-03-01T09:37:31;94818.09;;;8.03;87.97
35778;BME280;21899;42.662;23.316;2023-03-01T09:39:57;94815.28;;;8.19;88.51
35778;BME280;21899;42.662;23.316;2023-03-01T09:42:22;94821.56;;;8.30;87.75
35778;BME280;21899;42.662;23.316;2023-03-01T09:44:52;94807.63;;;8.17;88.23
35778;BME280;21899;42.662;23.316;2023-03-01T09:47:31;94801.53;;;8.17;88.24
35778;BME280;21899;42.662;23.316;2023-03-01T09:50:16;94815.63;;;8.40;87.16
35778;BME280;21899;42.662;23.316;2023-03-01T09:52:46;94808.25;;;8.56;86.17
35778;BME280;21899;42.662;23.316;2023-03-01T09:55:17;94808.59;;;8.54;87.01
35778;BME280;21899;42.662;23.316;2023-03-01T09:57:54;94803.28;;;8.58;86.71
35778;BME280;21899;42.662;23.316;2023-03-01T10:02:55;94791.28;;;9.00;83.92
35778;BME280;21899;42.662;23.316;2023-03-01T10:10:36;94776.81;;;8.42;86.52
35778;BME280;21899;42.662;23.316;2023-03-01T10:13:27;94783.41;;;8.52;86.89
35778;BME280;21899;42.662;23.316;2023-03-01T10:16:03;94782.88;;;8.69;85.36
35778;BME280;21899;42.662;23.316;2023-03-01T10:18:31;94778.34;;;8.73;85.01
35778;BME280;21899;42.662;23.316;2023-03-01T10:21:01;94784.75;;;8.39;85.59
35778;BME280;21899;42.662;23.316;2023-03-01T10:23:31;94786.19;;;8.10;87.75
35778;BME280;21899;42.662;23.316;2023-03-01T10:28:58;94775.38;;;8.00;89.29
35778;BME280;21899;42.662;23.316;2023-03-01T10:34:04;94769.59;;;8.46;87.47
35778;BME280;21899;42.662;23.316;2023-03-01T10:36:33;94764.19;;;8.69;86.39
35778;BME280;21899;42.662;23.316;2023-03-01T10:38:59;94759.50;;;8.59;86.16
35778;BME280;21899;42.662;23.316;2023-03-01T10:41:26;94750.22;;;8.79;84.74
35778;BME280;21899;42.662;23.316;2023-03-01T10:43:56;94745.00;;;8.60;85.34
35778;BME280;21899;42.662;23.316;2023-03-01T10:49:13;94754.25;;;8.66;84.95
35778;BME280;21899;42.662;23.316;2023-03-01T10:51:45;94756.59;;;8.71;84.75
35778;BME280;21899;42.662;23.316;2023-03-01T10:54:20;94755.03;;;8.70;85.34
35778;BME280;21899;42.662;23.316;2023-03-01T10:56:58;94750.78;;;8.95;83.53
35778;BME280;21899;42.662;23.316;2023-03-01T11:02:25;94775.59;;;8.66;85.61
35778;BME280;21899;42.662;23.316;2023-03-01T11:05:21;94749.66;;;8.66;84.68
35778;BME280;21899;42.662;23.316;2023-03-01T11:07:56;94762.56;;;8.90;83.99
35778;BME280;21899;42.662;23.316;2023-03-01T11:10:27;94770.97;;;8.92;83.56
35778;BME280;21899;42.662;23.316;2023-03-01T11:12:53;94771.88;;;8.74;84.21
35778;BME280;21899;42.662;23.316;2023-03-01T11:15:27;94766.47;;;9.00;83.22
35778;BME280;21899;42.662;23.316;2023-03-01T11:17:53;94768.31;;;8.96;83.28
35778;BME280;21899;42.662;23.316;2023-03-01T11:22:54;94750.13;;;9.05;82.65
35778;BME280;21899;42.662;23.316;2023-03-01T11:25:24;94759.06;;;9.19;82.61
35778;BME280;21899;42.662;23.316;2023-03-01T11:27:50;94745.34;;;9.21;81.80
35778;BME280;21899;42.662;23.316;2023-03-01T11:30:24;94763.38;;;9.31;80.72
35778;BME280;21899;42.662;23.316;2023-03-01T11:33:03;94760.66;;;9.27;80.79
35778;BME280;21899;42.662;23.316;2023-03-01T11:35:31;94748.53;;;8.97;82.14
35778;BME280;21899;42.662;23.316;2023-03-01T11:42:54;94746.63;;;9.01;83.84
35778;BME280;21899;42.662;23.316;2023-03-01T11:45:24;94734.91;;;9.09;84.40
35778;BME280;21899;42.662;23.316;2023-03-01T11:48:12;94731.06;;;9.43;82.54
35778;BME280;21899;42.662;23.316;2023-03-01T11:50:47;94720.78;;;9.45;81.51
35778;BME280;21899;42.662;23.316;2023-03-01T11:59:03;94714.28;;;9.46;79.45
35778;BME280;21899;42.662;23.316;2023-03-01T12:01:48;94727.16;;;9.37;80.46
35778;BME280;21899;42.662;23.316;2023-03-01T12:06:56;94720.84;;;9.12;82.84
35778;BME280;21899;42.662;23.316;2023-03-01T12:12:29;94716.16;;;9.02;83.17
35778;BME280;21899;42.662;23.316;2023-03-01T12:29:21;94703.34;;;9.58;80.34
35778;BME280;21899;42.662;23.316;2023-03-01T12:32:04;94698.72;;;9.55;79.62
35778;BME280;21899;42.662;23.316;2023-03-01T12:37:36;94700.88;;;9.86;77.41
35778;BME280;21899;42.662;23.316;2023-03-01T12:48:11;94685.88;;;8.91;82.23
35778;BME280;21899;42.662;23.316;2023-03-01T12:50:47;94689.03;;;9.00;81.67
35778;BME280;21899;42.662;23.316;2023-03-01T12:53:39;94688.31;;;9.03;81.49
35778;BME280;21899;42.662;23.316;2023-03-01T12:56:07;94685.19;;;8.94;82.11
35778;BME280;21899;42.662;23.316;2023-03-01T13:04:26;94691.91;;;9.61;79.55
35778;BME280;21899;42.662;23.316;2023-03-01T13:07:16;94683.59;;;9.77;77.94
35778;BME280;21899;42.662;23.316;2023-03-01T13:10:19;94698.88;;;9.76;76.70
35778;BME280;21899;42.662;23.316;2023-03-01T13:20:24;94697.81;;;9.41;79.50
35778;BME280;21899;42.662;23.316;2023-03-01T13:23:13;94692.31;;;9.23;79.82
35778;BME280;21899;42.662;23.316;2023-03-01T13:33:58;94692.19;;;9.09;80.82
35778;BME280;21899;42.662;23.316;2023-03-01T13:38:56;94699.19;;;9.24;80.42
35778;BME280;21899;42.662;23.316;2023-03-01T13:44:20;94696.69;;;9.01;82.39
35778;BME280;21899;42.662;23.316;2023-03-01T13:47:14;94678.72;;;8.62;84.15
35778;BME280;21899;42.662;23.316;2023-03-01T13:49:49;94695.88;;;8.61;84.91
35778;BME280;21899;42.662;23.316;2023-03-01T13:52:28;94699.19;;;8.51;86.59
35778;BME280;21899;42.662;23.316;2023-03-01T13:54:57;94674.56;;;8.64;86.30
35778;BME280;21899;42.662;23.316;2023-03-01T13:57:26;94678.81;;;8.69;86.01
35778;BME280;21899;42.662;23.316;2023-03-01T13:59:54;94677.25;;;8.64;86.37
35778;BME280;21899;42.662;23.316;2023-03-01T14:02:20;94677.19;;;8.61;86.70
35778;BME280;21899;42.662;23.316;2023-03-01T14:04:56;94670.94;;;8.50;86.60
35778;BME280;21899;42.662;23.316;2023-03-01T14:07:23;94686.16;;;8.46;87.51
35778;BME280;21899;42.662;23.316;2023-03-01T14:09:54;94683.81;;;8.41;87.84
35778;BME280;21899;42.662;23.316;2023-03-01T14:15:04;94684.44;;;8.31;88.70
35778;BME280;21899;42.662;23.316;2023-03-01T14:17:42;94678.66;;;8.25;89.45
35778;BME280;21899;42.662;23.316;2023-03-01T14:20:19;94681.59;;;8.20;88.84
35778;BME280;21899;42.662;23.316;2023-03-01T14:22:46;94679.84;;;8.28;89.40
35778;BME280;21899;42.662;23.316;2023-03-01T14:27:58;94667.81;;;8.41;88.94
35778;BME280;21899;42.662;23.316;2023-03-01T14:30:27;94668.59;;;8.45;89.10
35778;BME280;21899;42.662;23.316;2023-03-01T14:32:58;94665.47;;;8.36;89.65
35778;BME280;21899;42.662;23.316;2023-03-01T14:35:27;94678.56;;;8.22;90.44
35778;BME280;21899;42.662;23.316;2023-03-01T14:37:52;94684.94;;;8.14;90.62
35778;BME280;21899;42.662;23.316;2023-03-01T14:40:22;94684.41;;;8.01;92.22
35778;BME280;21899;42.662;23.316;2023-03-01T14:42:49;94679.81;;;8.02;92.33
35778;BME280;21899;42.662;23.316;2023-03-01T14:45:14;94674.81;;;7.97;92.04
35778;BME280;21899;42.662;23.316;2023-03-01T14:47:40;94680.09;;;7.93;92.65
35778;BME280;21899;42.662;23.316;2023-03-01T14:50:34;94675.63;;;7.74;94.03